createdAt,value
2017-07-19T00:00:06.556Z,936.95
2017-07-19T00:00:19.459Z,937
2017-07-19T00:00:32.904Z,936.99
2017-07-19T00:00:45.787Z,937
2017-07-19T00:00:58.654Z,937.03
2017-07-19T00:01:11.538Z,937.03
2017-07-19T00:01:24.934Z,937.06
2017-07-19T00:01:38.434Z,936.97
2017-07-19T00:01:51.897Z,937.03
2017-07-19T00:02:05.366Z,936.96
2017-07-19T00:02:18.281Z,936.98
2017-07-19T00:02:30.695Z,937.01
2017-07-19T00:02:43.620Z,937.03
2017-07-19T00:02:57.138Z,937.09
2017-07-19T00:03:11.384Z,936.99
2017-07-19T00:03:24.822Z,937.02
2017-07-19T00:03:38.317Z,937
2017-07-19T00:03:51.796Z,937.02
2017-07-19T00:04:05.352Z,936.97
2017-07-19T00:04:17.810Z,937.03
2017-07-19T00:04:31.300Z,936.99
2017-07-19T00:04:44.727Z,937
2017-07-19T00:04:57.141Z,937.02
2017-07-19T00:05:10.186Z,937.08
2017-07-19T00:05:23.623Z,937.03
2017-07-19T00:05:37.117Z,936.99
2017-07-19T00:05:50.580Z,937.05
2017-07-19T00:06:03.494Z,937.01
2017-07-19T00:06:16.435Z,936.98
2017-07-19T00:06:29.784Z,937.01
2017-07-19T00:06:43.197Z,936.99
2017-07-19T00:06:56.652Z,936.99
2017-07-19T00:07:10.111Z,937
2017-07-19T00:07:23.535Z,937.01
2017-07-19T00:07:36.518Z,937.04
2017-07-19T00:07:49.425Z,936.99
2017-07-19T00:08:02.910Z,936.97
2017-07-19T00:08:16.672Z,936.98
2017-07-19T00:08:30.112Z,936.96
2017-07-19T00:08:43.079Z,936.96
2017-07-19T00:08:56.532Z,936.96
2017-07-19T00:09:09.548Z,936.94
2017-07-19T00:09:22.470Z,936.98
2017-07-19T00:09:35.361Z,937.01
2017-07-19T00:09:48.812Z,936.95
2017-07-19T00:10:02.188Z,936.99
2017-07-19T00:10:15.082Z,936.92
2017-07-19T00:10:27.957Z,936.95
2017-07-19T00:10:41.433Z,936.94
2017-07-19T00:10:54.410Z,936.98
2017-07-19T00:11:07.819Z,936.99
2017-07-19T00:11:21.232Z,937
2017-07-19T00:11:33.621Z,936.95
2017-07-19T00:11:46.498Z,936.96
2017-07-19T00:11:59.964Z,936.98
2017-07-19T00:12:12.346Z,936.95
2017-07-19T00:12:25.285Z,936.95
2017-07-19T00:12:38.746Z,936.95
2017-07-19T00:12:51.621Z,936.99
2017-07-19T00:13:04.499Z,936.99
2017-07-19T00:13:18.137Z,936.99
2017-07-19T00:13:31.056Z,937.01
2017-07-19T00:13:44.496Z,936.98
2017-07-19T00:13:57.923Z,936.97
2017-07-19T00:14:10.325Z,936.97
2017-07-19T00:14:23.222Z,936.96
2017-07-19T00:14:36.131Z,936.92
2017-07-19T00:14:49.536Z,936.94
2017-07-19T00:15:02.479Z,936.95
2017-07-19T00:15:15.886Z,936.93
2017-07-19T00:15:29.325Z,936.93
2017-07-19T00:15:42.249Z,936.93
2017-07-19T00:15:55.671Z,936.91
2017-07-19T00:16:09.136Z,936.92
2017-07-19T00:16:22.602Z,936.92
2017-07-19T00:16:35.533Z,936.95
2017-07-19T00:16:48.481Z,936.99
2017-07-19T00:17:01.358Z,936.87
2017-07-19T00:17:14.788Z,936.88
2017-07-19T00:17:28.282Z,936.86
2017-07-19T00:17:41.769Z,936.86
2017-07-19T00:17:54.691Z,936.87
2017-07-19T00:18:08.112Z,936.87
2017-07-19T00:18:21.575Z,936.92
2017-07-19T00:18:35.084Z,936.93
2017-07-19T00:18:48.489Z,936.86
2017-07-19T00:19:01.490Z,936.91
2017-07-19T00:19:14.890Z,936.93
2017-07-19T00:19:28.315Z,936.96
2017-07-19T00:19:41.851Z,936.92
2017-07-19T00:19:54.802Z,936.92
2017-07-19T00:20:08.269Z,936.91
2017-07-19T00:20:21.710Z,936.92
2017-07-19T00:20:35.166Z,936.9
2017-07-19T00:20:48.125Z,936.97
2017-07-19T00:21:01.086Z,937.01
2017-07-19T00:21:12.968Z,936.94
2017-07-19T00:21:26.434Z,936.95
2017-07-19T00:21:39.855Z,936.89
2017-07-19T00:21:52.851Z,936.93
2017-07-19T00:22:06.281Z,936.92
2017-07-19T00:22:19.189Z,936.99
2017-07-19T00:22:32.654Z,936.99
2017-07-19T00:22:46.140Z,936.97
2017-07-19T00:22:59.584Z,936.98
2017-07-19T00:23:12.514Z,936.92
2017-07-19T00:23:26.188Z,936.94
2017-07-19T00:23:39.638Z,936.95
2017-07-19T00:23:52.513Z,936.95
2017-07-19T00:24:05.460Z,936.92
2017-07-19T00:24:18.359Z,936.93
2017-07-19T00:24:31.222Z,936.93
2017-07-19T00:24:44.657Z,936.92
2017-07-19T00:24:57.586Z,936.88
2017-07-19T00:25:09.480Z,936.91
2017-07-19T00:25:22.954Z,936.97
2017-07-19T00:25:36.425Z,936.94
2017-07-19T00:25:49.914Z,936.98
2017-07-19T00:26:02.342Z,936.96
2017-07-19T00:26:15.288Z,936.98
2017-07-19T00:26:28.218Z,937.03
2017-07-19T00:26:41.691Z,937.05
2017-07-19T00:26:55.142Z,936.95
2017-07-19T00:27:08.604Z,936.97
2017-07-19T00:27:21.513Z,936.97
2017-07-19T00:27:34.973Z,937.03
2017-07-19T00:27:48.376Z,937.01
2017-07-19T00:28:01.277Z,937.03
2017-07-19T00:28:14.738Z,936.99
2017-07-19T00:28:28.224Z,937.02
2017-07-19T00:28:41.661Z,936.95
2017-07-19T00:28:55.747Z,937.02
2017-07-19T00:29:09.224Z,937.01
2017-07-19T00:29:22.133Z,937.02
2017-07-19T00:29:35.628Z,936.99
2017-07-19T00:29:48.547Z,936.99
2017-07-19T00:30:01.463Z,936.97
2017-07-19T00:30:14.389Z,937.03
2017-07-19T00:30:27.341Z,936.98
2017-07-19T00:30:40.760Z,936.97
2017-07-19T00:30:54.260Z,936.98
2017-07-19T00:31:07.673Z,936.95
2017-07-19T00:31:21.160Z,936.95
2017-07-19T00:31:34.091Z,936.95
2017-07-19T00:31:47.558Z,936.93
2017-07-19T00:32:01.048Z,936.92
2017-07-19T00:32:14.481Z,936.92
2017-07-19T00:32:27.396Z,936.96
2017-07-19T00:32:40.923Z,936.93
2017-07-19T00:32:54.371Z,936.9
2017-07-19T00:33:07.819Z,936.93
2017-07-19T00:33:20.700Z,936.95
2017-07-19T00:33:34.898Z,936.93
2017-07-19T00:33:48.400Z,936.96
2017-07-19T00:34:01.361Z,936.95
2017-07-19T00:34:14.805Z,937.03
2017-07-19T00:34:27.779Z,937.11
2017-07-19T00:34:40.720Z,936.99
2017-07-19T00:34:52.632Z,937.11
2017-07-19T00:35:06.063Z,936.94
2017-07-19T00:35:19.052Z,936.98
2017-07-19T00:35:32.007Z,936.95
2017-07-19T00:35:45.438Z,936.95
2017-07-19T00:35:57.304Z,936.98
2017-07-19T00:36:10.815Z,936.95
2017-07-19T00:36:24.277Z,936.93
2017-07-19T00:36:37.199Z,936.96
2017-07-19T00:36:50.640Z,936.99
2017-07-19T00:37:03.536Z,936.95
2017-07-19T00:37:16.975Z,936.97
2017-07-19T00:37:30.361Z,936.96
2017-07-19T00:37:43.796Z,936.97
2017-07-19T00:37:57.269Z,936.98
2017-07-19T00:38:10.714Z,936.99
2017-07-19T00:38:23.666Z,937.01
2017-07-19T00:38:36.568Z,937.02
2017-07-19T00:38:50.016Z,936.96
2017-07-19T00:39:03.426Z,937.02
2017-07-19T00:39:16.394Z,937
2017-07-19T00:39:29.860Z,936.94
2017-07-19T00:39:42.790Z,936.95
2017-07-19T00:39:56.167Z,936.96
2017-07-19T00:40:09.618Z,937
2017-07-19T00:40:22.544Z,936.99
2017-07-19T00:40:35.465Z,936.99
2017-07-19T00:40:48.914Z,936.96
2017-07-19T00:41:02.326Z,936.99
2017-07-19T00:41:15.794Z,936.94
2017-07-19T00:41:29.261Z,936.98
2017-07-19T00:41:42.175Z,936.94
2017-07-19T00:41:55.616Z,936.99
2017-07-19T00:42:08.578Z,937.03
2017-07-19T00:42:22.087Z,936.96
2017-07-19T00:42:35.497Z,937.01
2017-07-19T00:42:48.954Z,936.97
2017-07-19T00:43:02.410Z,937.01
2017-07-19T00:43:15.381Z,936.99
2017-07-19T00:43:28.897Z,937.01
2017-07-19T00:43:41.849Z,936.99
2017-07-19T00:43:55.289Z,937.01
2017-07-19T00:44:08.249Z,936.98
2017-07-19T00:44:21.665Z,936.98
2017-07-19T00:44:34.128Z,936.97
2017-07-19T00:44:47.561Z,936.97
2017-07-19T00:45:01.005Z,937.03
2017-07-19T00:45:14.419Z,937.01
2017-07-19T00:45:27.406Z,937
2017-07-19T00:45:40.896Z,936.95
2017-07-19T00:45:54.367Z,937.01
2017-07-19T00:46:07.880Z,936.97
2017-07-19T00:46:20.829Z,936.97
2017-07-19T00:46:33.719Z,936.93
2017-07-19T00:46:47.158Z,936.98
2017-07-19T00:47:00.104Z,936.87
2017-07-19T00:47:13.023Z,937.13
2017-07-19T00:47:26.486Z,936.98
2017-07-19T00:47:39.957Z,936.95
2017-07-19T00:47:53.438Z,936.92
2017-07-19T00:48:06.891Z,936.95
2017-07-19T00:48:19.257Z,936.93
2017-07-19T00:48:33.029Z,937.05
2017-07-19T00:48:45.990Z,936.96
2017-07-19T00:48:58.954Z,936.95
2017-07-19T00:49:12.367Z,936.97
2017-07-19T00:49:25.268Z,937.03
2017-07-19T00:49:38.755Z,936.98
2017-07-19T00:49:52.098Z,936.93
2017-07-19T00:50:05.534Z,936.97
2017-07-19T00:50:18.467Z,936.95
2017-07-19T00:50:31.358Z,936.93
2017-07-19T00:50:44.799Z,936.97
2017-07-19T00:50:57.764Z,936.98
2017-07-19T00:51:11.190Z,936.94
2017-07-19T00:51:24.571Z,936.9
2017-07-19T00:51:37.489Z,936.92
2017-07-19T00:51:50.970Z,936.99
2017-07-19T00:52:03.337Z,937
2017-07-19T00:52:16.796Z,936.91
2017-07-19T00:52:29.696Z,936.93
2017-07-19T00:52:42.646Z,936.9
2017-07-19T00:52:56.058Z,936.96
2017-07-19T00:53:08.971Z,936.99
2017-07-19T00:53:22.434Z,936.94
2017-07-19T00:53:35.450Z,936.98
2017-07-19T00:53:48.379Z,936.94
2017-07-19T00:54:01.852Z,936.98
2017-07-19T00:54:14.756Z,936.95
2017-07-19T00:54:28.171Z,936.98
2017-07-19T00:54:41.663Z,936.95
2017-07-19T00:54:55.087Z,936.96
2017-07-19T00:55:08.460Z,936.97
2017-07-19T00:55:21.867Z,937.02
2017-07-19T00:55:35.374Z,936.95
2017-07-19T00:55:48.756Z,937
2017-07-19T00:56:02.208Z,936.92
2017-07-19T00:56:15.102Z,936.99
2017-07-19T00:56:28.050Z,936.97
2017-07-19T00:56:41.472Z,937.03
2017-07-19T00:56:54.918Z,937
2017-07-19T00:57:07.841Z,937
2017-07-19T00:57:20.700Z,937.03
2017-07-19T00:57:34.115Z,937.01
2017-07-19T00:57:47.515Z,936.98
2017-07-19T00:58:00.990Z,937.03
2017-07-19T00:58:13.490Z,937.01
2017-07-19T00:58:26.485Z,937.01
2017-07-19T00:58:39.426Z,937.01
2017-07-19T00:58:52.309Z,937.03
2017-07-19T00:59:05.794Z,937
2017-07-19T00:59:18.705Z,937.02
2017-07-19T00:59:31.636Z,937.02
2017-07-19T00:59:45.145Z,937.12
2017-07-19T00:59:58.556Z,937.03
2017-07-19T01:00:12.033Z,937.03
2017-07-19T01:00:24.900Z,936.99
2017-07-19T01:00:38.343Z,937.06
2017-07-19T01:00:51.770Z,937.05
2017-07-19T01:01:04.101Z,937.01
2017-07-19T01:01:17.584Z,937.01
2017-07-19T01:01:30.938Z,937.02
2017-07-19T01:01:43.858Z,936.98
2017-07-19T01:01:56.786Z,937.01
2017-07-19T01:02:09.734Z,936.99
2017-07-19T01:02:22.135Z,936.99
2017-07-19T01:02:35.601Z,937
2017-07-19T01:02:49.050Z,937
2017-07-19T01:03:02.057Z,936.97
2017-07-19T01:03:15.040Z,937.04
2017-07-19T01:03:27.422Z,937.03
2017-07-19T01:03:41.642Z,936.96
2017-07-19T01:03:54.558Z,936.96
2017-07-19T01:04:07.488Z,936.98
2017-07-19T01:04:20.403Z,936.93
2017-07-19T01:04:32.831Z,936.87
2017-07-19T01:04:45.791Z,936.87
2017-07-19T01:04:58.784Z,936.87
2017-07-19T01:05:11.664Z,936.85
2017-07-19T01:05:25.091Z,936.86
2017-07-19T01:05:38.539Z,936.84
2017-07-19T01:05:51.988Z,936.84
2017-07-19T01:06:05.488Z,936.89
2017-07-19T01:06:18.917Z,936.86
2017-07-19T01:06:31.811Z,936.94
2017-07-19T01:06:45.187Z,936.89
2017-07-19T01:06:58.649Z,936.9
2017-07-19T01:07:11.044Z,936.89
2017-07-19T01:07:23.454Z,936.89
2017-07-19T01:07:36.886Z,936.87
2017-07-19T01:07:49.810Z,936.91
2017-07-19T01:08:03.248Z,936.86
2017-07-19T01:08:16.716Z,936.87
2017-07-19T01:08:29.605Z,936.92
2017-07-19T01:08:42.745Z,936.91
2017-07-19T01:08:55.634Z,936.89
2017-07-19T01:09:08.540Z,936.94
2017-07-19T01:09:21.993Z,936.93
2017-07-19T01:09:35.468Z,936.99
2017-07-19T01:09:48.997Z,937
2017-07-19T01:10:01.341Z,936.93
2017-07-19T01:10:14.775Z,936.98
2017-07-19T01:10:27.694Z,936.89
2017-07-19T01:10:41.217Z,936.98
2017-07-19T01:10:54.141Z,936.91
2017-07-19T01:11:07.068Z,937.04
2017-07-19T01:11:20.525Z,937.03
2017-07-19T01:11:33.943Z,936.98
2017-07-19T01:11:46.848Z,936.89
2017-07-19T01:12:00.299Z,936.86
2017-07-19T01:12:13.244Z,936.89
2017-07-19T01:12:25.618Z,936.91
2017-07-19T01:12:39.068Z,936.88
2017-07-19T01:12:52.530Z,936.91
2017-07-19T01:13:05.502Z,936.86
2017-07-19T01:13:18.463Z,936.84
2017-07-19T01:13:31.861Z,936.86
2017-07-19T01:13:44.950Z,936.87
2017-07-19T01:13:57.905Z,936.85
2017-07-19T01:14:11.403Z,936.88
2017-07-19T01:14:24.386Z,936.82
2017-07-19T01:14:37.884Z,936.86
2017-07-19T01:14:51.463Z,936.86
2017-07-19T01:15:04.935Z,936.83
2017-07-19T01:15:17.862Z,936.85
2017-07-19T01:15:30.694Z,936.85
2017-07-19T01:15:44.163Z,936.85
2017-07-19T01:15:57.620Z,936.82
2017-07-19T01:16:10.537Z,936.78
2017-07-19T01:16:23.512Z,936.81
2017-07-19T01:16:37.034Z,936.81
2017-07-19T01:16:49.964Z,936.83
2017-07-19T01:17:03.379Z,936.84
2017-07-19T01:17:16.851Z,936.85
2017-07-19T01:17:30.349Z,936.79
2017-07-19T01:17:43.836Z,936.83
2017-07-19T01:17:56.773Z,936.82
2017-07-19T01:18:10.198Z,936.88
2017-07-19T01:18:23.629Z,936.85
2017-07-19T01:18:37.167Z,936.84
2017-07-19T01:18:50.844Z,936.93
2017-07-19T01:19:04.335Z,936.86
2017-07-19T01:19:17.191Z,936.83
2017-07-19T01:19:30.605Z,936.81
2017-07-19T01:19:44.074Z,936.81
2017-07-19T01:19:57.011Z,936.84
2017-07-19T01:20:09.980Z,936.8
2017-07-19T01:20:23.432Z,936.89
2017-07-19T01:20:36.923Z,936.8
2017-07-19T01:20:50.323Z,936.75
2017-07-19T01:21:03.288Z,936.77
2017-07-19T01:21:16.787Z,936.81
2017-07-19T01:21:30.278Z,936.78
2017-07-19T01:21:43.731Z,936.8
2017-07-19T01:21:56.698Z,936.79
2017-07-19T01:22:09.664Z,936.82
2017-07-19T01:22:22.074Z,936.83
2017-07-19T01:22:35.486Z,936.81
2017-07-19T01:22:48.893Z,936.84
2017-07-19T01:23:01.749Z,936.82
2017-07-19T01:23:15.184Z,936.77
2017-07-19T01:23:28.665Z,936.83
2017-07-19T01:23:41.613Z,936.78
2017-07-19T01:23:54.612Z,936.77
2017-07-19T01:24:07.495Z,936.78
2017-07-19T01:24:20.970Z,936.72
2017-07-19T01:24:33.350Z,936.73
2017-07-19T01:24:46.796Z,936.81
2017-07-19T01:24:59.761Z,936.79
2017-07-19T01:25:13.204Z,936.78
2017-07-19T01:25:26.737Z,936.77
2017-07-19T01:25:39.143Z,936.84
2017-07-19T01:25:52.548Z,936.82
2017-07-19T01:26:06.016Z,936.81
2017-07-19T01:26:19.502Z,936.85
2017-07-19T01:26:32.908Z,936.85
2017-07-19T01:26:45.812Z,936.84
2017-07-19T01:26:59.281Z,936.84
2017-07-19T01:27:12.198Z,936.81
2017-07-19T01:27:25.662Z,936.85
2017-07-19T01:27:39.096Z,936.82
2017-07-19T01:27:52.627Z,936.85
2017-07-19T01:28:05.580Z,936.85
2017-07-19T01:28:18.132Z,936.84
2017-07-19T01:28:31.594Z,936.86
2017-07-19T01:28:45.355Z,936.9
2017-07-19T01:28:58.837Z,936.89
2017-07-19T01:29:12.753Z,936.85
2017-07-19T01:29:26.481Z,936.86
2017-07-19T01:29:40.178Z,936.86
2017-07-19T01:30:24.936Z,936.91
2017-07-19T01:30:58.799Z,936.86
2017-07-19T01:31:11.693Z,936.92
2017-07-19T01:31:25.083Z,936.89
2017-07-19T01:31:38.000Z,936.89
2017-07-19T01:31:51.390Z,936.88
2017-07-19T01:32:04.334Z,936.87
2017-07-19T01:32:17.793Z,936.9
2017-07-19T01:32:31.235Z,936.9
2017-07-19T01:32:44.151Z,936.85
2017-07-19T01:32:57.576Z,936.89
2017-07-19T01:33:11.113Z,936.88
2017-07-19T01:33:23.480Z,936.91
2017-07-19T01:33:36.918Z,936.87
2017-07-19T01:33:50.596Z,936.9
2017-07-19T01:34:04.056Z,936.88
2017-07-19T01:34:16.956Z,936.85
2017-07-19T01:34:29.833Z,936.81
2017-07-19T01:34:43.307Z,936.86
2017-07-19T01:34:55.700Z,936.87
2017-07-19T01:35:08.653Z,936.86
2017-07-19T01:35:21.532Z,936.84
2017-07-19T01:35:35.012Z,936.85
2017-07-19T01:35:47.992Z,936.87
2017-07-19T01:36:01.413Z,936.84
2017-07-19T01:36:14.366Z,936.82
2017-07-19T01:36:27.835Z,936.84
2017-07-19T01:36:40.723Z,936.83
2017-07-19T01:36:54.163Z,936.8
2017-07-19T01:37:06.579Z,936.78
2017-07-19T01:37:20.020Z,936.79
2017-07-19T01:37:33.750Z,936.82
2017-07-19T01:37:47.258Z,936.78
2017-07-19T01:38:00.712Z,936.77
2017-07-19T01:38:14.213Z,936.77
2017-07-19T01:38:27.683Z,936.79
2017-07-19T01:38:41.152Z,936.78
2017-07-19T01:38:54.318Z,936.76
2017-07-19T01:39:07.757Z,936.8
2017-07-19T01:39:21.198Z,936.78
2017-07-19T01:39:34.141Z,936.78
2017-07-19T01:39:47.545Z,936.79
2017-07-19T01:40:01.021Z,936.8
2017-07-19T01:40:13.460Z,936.78
2017-07-19T01:40:26.923Z,936.81
2017-07-19T01:40:40.353Z,936.76
2017-07-19T01:40:53.857Z,936.84
2017-07-19T01:41:07.250Z,936.82
2017-07-19T01:41:20.706Z,936.79
2017-07-19T01:41:34.193Z,936.82
2017-07-19T01:41:46.096Z,936.84
2017-07-19T01:41:58.495Z,936.84
2017-07-19T01:42:11.963Z,936.82
2017-07-19T01:42:24.936Z,936.84
2017-07-19T01:42:37.852Z,936.82
2017-07-19T01:42:51.282Z,936.85
2017-07-19T01:43:04.682Z,936.82
2017-07-19T01:43:18.134Z,936.89
2017-07-19T01:43:31.503Z,936.84
2017-07-19T01:43:44.982Z,936.88
2017-07-19T01:43:58.016Z,936.92
2017-07-19T01:44:11.506Z,936.91
2017-07-19T01:44:25.004Z,936.88
2017-07-19T01:44:38.480Z,936.87
2017-07-19T01:44:51.917Z,936.88
2017-07-19T01:45:04.880Z,936.87
2017-07-19T01:45:18.300Z,936.93
2017-07-19T01:45:31.763Z,936.89
2017-07-19T01:45:45.224Z,936.96
2017-07-19T01:45:58.126Z,936.86
2017-07-19T01:46:11.081Z,936.88
2017-07-19T01:46:24.532Z,936.87
2017-07-19T01:46:37.463Z,936.9
2017-07-19T01:46:50.894Z,936.89
2017-07-19T01:47:04.374Z,936.92
2017-07-19T01:47:17.285Z,936.89
2017-07-19T01:47:30.176Z,936.91
2017-07-19T01:47:43.651Z,936.86
2017-07-19T01:47:57.115Z,936.87
2017-07-19T01:48:09.479Z,936.84
2017-07-19T01:48:22.965Z,936.87
2017-07-19T01:48:36.484Z,936.91
2017-07-19T01:48:49.908Z,936.89
2017-07-19T01:49:02.949Z,936.87
2017-07-19T01:49:15.883Z,936.84
2017-07-19T01:49:29.261Z,936.86
2017-07-19T01:49:42.735Z,936.86
2017-07-19T01:49:56.170Z,936.85
2017-07-19T01:50:08.552Z,936.82
2017-07-19T01:50:22.058Z,936.86
2017-07-19T01:50:34.916Z,936.85
2017-07-19T01:50:48.365Z,936.86
2017-07-19T01:51:01.868Z,936.83
2017-07-19T01:51:15.310Z,936.91
2017-07-19T01:51:28.776Z,936.83
2017-07-19T01:51:42.309Z,936.84
2017-07-19T01:51:55.286Z,936.82
2017-07-19T01:52:08.770Z,936.82
2017-07-19T01:52:21.646Z,936.83
2017-07-19T01:52:35.085Z,936.84
2017-07-19T01:52:48.542Z,936.85
2017-07-19T01:53:00.952Z,936.84
2017-07-19T01:53:13.897Z,936.83
2017-07-19T01:53:26.823Z,936.84
2017-07-19T01:53:40.277Z,936.82
2017-07-19T01:53:53.695Z,936.81
2017-07-19T01:54:07.116Z,936.82
2017-07-19T01:54:20.501Z,936.83
2017-07-19T01:54:33.911Z,936.78
2017-07-19T01:54:47.396Z,936.81
2017-07-19T01:55:00.868Z,936.81
2017-07-19T01:55:13.794Z,936.83
2017-07-19T01:55:27.296Z,936.81
2017-07-19T01:55:40.752Z,936.82
2017-07-19T01:55:53.169Z,936.79
2017-07-19T01:56:06.608Z,936.77
2017-07-19T01:56:20.057Z,936.77
2017-07-19T01:56:33.086Z,936.84
2017-07-19T01:56:46.041Z,936.82
2017-07-19T01:56:59.038Z,936.8
2017-07-19T01:57:12.515Z,936.81
2017-07-19T01:57:25.968Z,936.74
2017-07-19T01:57:38.840Z,936.78
2017-07-19T01:57:52.239Z,936.78
2017-07-19T01:58:05.158Z,936.81
2017-07-19T01:58:18.097Z,936.76
2017-07-19T01:58:31.566Z,936.79
2017-07-19T01:58:45.033Z,936.79
2017-07-19T01:58:57.942Z,936.79
2017-07-19T01:59:10.861Z,936.81
2017-07-19T01:59:24.321Z,936.78
2017-07-19T01:59:37.222Z,936.8
2017-07-19T01:59:49.633Z,936.76
2017-07-19T02:00:02.590Z,936.77
2017-07-19T02:00:16.021Z,936.75
2017-07-19T02:00:29.437Z,936.77
2017-07-19T02:00:42.370Z,936.79
2017-07-19T02:00:55.331Z,936.77
2017-07-19T02:01:08.234Z,936.8
2017-07-19T02:01:20.636Z,936.76
2017-07-19T02:01:33.558Z,936.8
2017-07-19T02:01:47.036Z,936.79
2017-07-19T02:02:00.523Z,936.76
2017-07-19T02:02:13.972Z,936.76
2017-07-19T02:02:27.436Z,936.71
2017-07-19T02:02:40.335Z,936.71
2017-07-19T02:02:53.764Z,936.76
2017-07-19T02:03:06.699Z,936.71
2017-07-19T02:03:19.134Z,936.68
2017-07-19T02:03:31.535Z,936.66
2017-07-19T02:03:45.006Z,936.75
2017-07-19T02:03:57.394Z,936.73
2017-07-19T02:04:11.063Z,936.7
2017-07-19T02:04:23.470Z,936.72
2017-07-19T02:04:36.464Z,936.6
2017-07-19T02:04:49.966Z,936.75
2017-07-19T02:05:03.414Z,936.66
2017-07-19T02:05:16.921Z,936.71
2017-07-19T02:05:30.468Z,936.72
2017-07-19T02:05:43.433Z,936.61
2017-07-19T02:05:56.362Z,936.62
2017-07-19T02:06:09.797Z,936.64
2017-07-19T02:06:22.244Z,936.68
2017-07-19T02:06:35.700Z,936.63
2017-07-19T02:06:49.442Z,936.72
2017-07-19T02:07:02.324Z,936.69
2017-07-19T02:07:15.187Z,936.67
2017-07-19T02:07:28.630Z,936.67
2017-07-19T02:07:41.549Z,936.66
2017-07-19T02:07:54.984Z,936.63
2017-07-19T02:08:07.823Z,936.69
2017-07-19T02:08:21.265Z,936.66
2017-07-19T02:08:34.728Z,936.65
2017-07-19T02:08:47.675Z,936.67
2017-07-19T02:09:00.618Z,936.66
2017-07-19T02:09:13.524Z,936.67
2017-07-19T02:09:26.480Z,936.67
2017-07-19T02:09:39.428Z,936.64
2017-07-19T02:09:52.399Z,936.65
2017-07-19T02:10:05.818Z,936.64
2017-07-19T02:10:19.219Z,936.68
2017-07-19T02:10:32.706Z,936.65
2017-07-19T02:10:45.725Z,936.7
2017-07-19T02:10:58.636Z,936.69
2017-07-19T02:11:12.165Z,936.69
2017-07-19T02:11:25.087Z,936.67
2017-07-19T02:11:38.564Z,936.78
2017-07-19T02:11:52.000Z,936.72
2017-07-19T02:12:05.483Z,936.68
2017-07-19T02:12:18.925Z,936.65
2017-07-19T02:12:32.379Z,936.64
2017-07-19T02:12:45.787Z,936.65
2017-07-19T02:12:58.701Z,936.69
2017-07-19T02:13:12.172Z,936.65
2017-07-19T02:13:25.176Z,936.64
2017-07-19T02:13:38.678Z,936.71
2017-07-19T02:13:52.164Z,936.67
2017-07-19T02:14:05.649Z,936.67
2017-07-19T02:14:18.713Z,936.7
2017-07-19T02:14:31.720Z,936.65
2017-07-19T02:14:44.601Z,936.66
2017-07-19T02:14:58.028Z,936.76
2017-07-19T02:15:10.948Z,936.7
2017-07-19T02:15:24.390Z,936.75
2017-07-19T02:15:36.782Z,936.76
2017-07-19T02:15:50.211Z,936.76
2017-07-19T02:16:03.647Z,936.74
2017-07-19T02:16:16.584Z,936.73
2017-07-19T02:16:30.049Z,936.76
2017-07-19T02:16:43.478Z,936.74
2017-07-19T02:16:56.426Z,936.8
2017-07-19T02:17:09.358Z,936.68
2017-07-19T02:17:22.287Z,936.76
2017-07-19T02:17:35.707Z,936.71
2017-07-19T02:17:49.224Z,936.72
2017-07-19T02:18:01.684Z,936.73
2017-07-19T02:18:14.636Z,936.72
2017-07-19T02:18:28.020Z,936.73
2017-07-19T02:18:41.465Z,936.78
2017-07-19T02:18:54.356Z,936.74
2017-07-19T02:19:07.834Z,936.73
2017-07-19T02:19:21.997Z,936.73
2017-07-19T02:19:34.432Z,936.7
2017-07-19T02:19:47.837Z,936.73
2017-07-19T02:20:01.315Z,936.66
2017-07-19T02:20:14.707Z,936.66
2017-07-19T02:20:27.660Z,936.73
2017-07-19T02:20:41.080Z,936.72
2017-07-19T02:20:53.465Z,936.68
2017-07-19T02:21:06.364Z,936.64
2017-07-19T02:21:19.296Z,936.69
2017-07-19T02:21:32.795Z,936.67
2017-07-19T02:21:46.235Z,936.66
2017-07-19T02:21:59.190Z,936.68
2017-07-19T02:22:12.679Z,936.7
2017-07-19T02:22:26.187Z,936.66
2017-07-19T02:22:39.141Z,936.67
2017-07-19T02:22:52.115Z,936.72
2017-07-19T02:23:05.087Z,936.63
2017-07-19T02:23:18.529Z,936.85
2017-07-19T02:23:30.970Z,936.74
2017-07-19T02:23:44.514Z,936.66
2017-07-19T02:23:57.485Z,936.64
2017-07-19T02:24:10.975Z,936.69
2017-07-19T02:24:24.432Z,936.7
2017-07-19T02:24:37.347Z,936.66
2017-07-19T02:24:50.866Z,936.64
2017-07-19T02:25:03.806Z,936.65
2017-07-19T02:25:16.684Z,936.66
2017-07-19T02:25:30.168Z,936.65
2017-07-19T02:25:43.631Z,936.59
2017-07-19T02:25:57.126Z,936.69
2017-07-19T02:26:10.022Z,936.65
2017-07-19T02:26:22.440Z,936.63
2017-07-19T02:26:35.962Z,936.63
2017-07-19T02:26:49.352Z,936.63
2017-07-19T02:27:02.307Z,936.66
2017-07-19T02:27:15.795Z,936.61
2017-07-19T02:27:29.245Z,936.6
2017-07-19T02:27:42.166Z,936.62
2017-07-19T02:27:55.572Z,936.66
2017-07-19T02:28:08.499Z,936.66
2017-07-19T02:28:21.405Z,936.65
2017-07-19T02:28:34.836Z,936.64
2017-07-19T02:28:47.747Z,936.68
2017-07-19T02:29:00.680Z,936.66
2017-07-19T02:29:13.592Z,936.69
2017-07-19T02:29:26.089Z,936.65
2017-07-19T02:29:39.027Z,936.61
2017-07-19T02:29:52.423Z,936.66
2017-07-19T02:30:05.900Z,936.64
2017-07-19T02:30:19.291Z,936.59
2017-07-19T02:30:32.764Z,936.65
2017-07-19T02:30:46.240Z,936.7
2017-07-19T02:30:59.711Z,936.63
2017-07-19T02:31:13.177Z,936.63
2017-07-19T02:31:25.549Z,936.65
2017-07-19T02:31:38.469Z,936.6
2017-07-19T02:31:51.871Z,936.57
2017-07-19T02:32:04.314Z,936.62
2017-07-19T02:32:17.232Z,936.63
2017-07-19T02:32:30.653Z,936.67
2017-07-19T02:32:43.583Z,936.55
2017-07-19T02:32:56.504Z,936.6
2017-07-19T02:33:09.478Z,936.64
2017-07-19T02:33:22.405Z,936.63
2017-07-19T02:33:35.883Z,936.67
2017-07-19T02:33:49.315Z,936.67
2017-07-19T02:34:02.762Z,936.7
2017-07-19T02:34:16.188Z,936.66
2017-07-19T02:34:30.420Z,936.63
2017-07-19T02:34:43.297Z,936.64
2017-07-19T02:34:56.769Z,936.63
2017-07-19T02:35:09.701Z,936.65
2017-07-19T02:35:22.588Z,936.61
2017-07-19T02:35:36.074Z,936.62
2017-07-19T02:35:49.571Z,936.64
2017-07-19T02:36:02.473Z,936.64
2017-07-19T02:36:15.897Z,936.61
2017-07-19T02:36:28.792Z,936.61
2017-07-19T02:36:41.738Z,936.58
2017-07-19T02:36:54.658Z,936.57
2017-07-19T02:37:07.573Z,936.53
2017-07-19T02:37:20.499Z,936.58
2017-07-19T02:37:34.016Z,936.59
2017-07-19T02:37:47.491Z,936.59
2017-07-19T02:38:00.994Z,936.5
2017-07-19T02:38:14.473Z,936.52
2017-07-19T02:38:27.905Z,936.62
2017-07-19T02:38:40.889Z,936.58
2017-07-19T02:38:53.795Z,936.58
2017-07-19T02:39:06.688Z,936.59
2017-07-19T02:39:20.116Z,936.45
2017-07-19T02:39:33.598Z,936.53
2017-07-19T02:39:47.094Z,936.57
2017-07-19T02:39:58.956Z,936.51
2017-07-19T02:40:12.358Z,936.56
2017-07-19T02:40:25.754Z,936.6
2017-07-19T02:40:39.210Z,936.53
2017-07-19T02:40:52.131Z,936.6
2017-07-19T02:41:05.622Z,936.55
2017-07-19T02:41:19.089Z,936.55
2017-07-19T02:41:32.546Z,936.69
2017-07-19T02:41:45.476Z,936.56
2017-07-19T02:41:58.417Z,936.55
2017-07-19T02:42:11.883Z,936.59
2017-07-19T02:42:25.301Z,936.59
2017-07-19T02:42:38.752Z,936.49
2017-07-19T02:42:51.662Z,936.57
2017-07-19T02:43:04.560Z,936.66
2017-07-19T02:43:17.473Z,936.66
2017-07-19T02:43:30.398Z,936.57
2017-07-19T02:43:43.828Z,936.58
2017-07-19T02:43:56.733Z,936.53
2017-07-19T02:44:09.718Z,936.57
2017-07-19T02:44:23.241Z,936.53
2017-07-19T02:44:36.687Z,936.73
2017-07-19T02:44:50.187Z,936.72
2017-07-19T02:45:03.684Z,936.62
2017-07-19T02:45:17.199Z,936.57
2017-07-19T02:45:30.188Z,936.62
2017-07-19T02:45:43.649Z,936.59
2017-07-19T02:45:57.076Z,936.56
2017-07-19T02:46:10.526Z,936.58